sensor_id;sensor_type;location;lat;lon;timestamp;temperature;humidity
52575;DHT22;38468;48.114;-1.684;2023-11-22T00:00:41;12.80;76.80
52575;DHT22;38468;48.114;-1.684;2023-11-22T00:02:42;12.90;76.70
52575;DHT22;38468;48.114;-1.684;2023-11-22T00:04:42;12.90;76.80
52575;DHT22;38468;48.114;-1.684;2023-11-22T00:06:43;12.90;76.80
52575;DHT22;38468;48.114;-1.684;2023-11-22T00:08:43;12.90;76.90
52575;DHT22;38468;48.114;-1.684;2023-11-22T00:10:44;12.90;76.90
52575;DHT22;38468;48.114;-1.684;2023-11-22T00:12:45;12.90;77.00
52575;DHT22;38468;48.114;-1.684;2023-11-22T00:14:45;12.90;77.00
52575;DHT22;38468;48.114;-1.684;2023-11-22T00:16:47;12.80;77.10
52575;DHT22;38468;48.114;-1.684;2023-11-22T00:18:48;12.90;77.10
52575;DHT22;38468;48.114;-1.684;2023-11-22T00:20:49;12.90;77.20
52575;DHT22;38468;48.114;-1.684;2023-11-22T00:22:49;12.90;77.20
52575;DHT22;38468;48.114;-1.684;2023-11-22T00:24:50;12.90;77.10
52575;DHT22;38468;48.114;-1.684;2023-11-22T00:26:51;12.80;77.10
52575;DHT22;38468;48.114;-1.684;2023-11-22T00:28:51;12.80;77.20
52575;DHT22;38468;48.114;-1.684;2023-11-22T00:30:53;12.80;77.20
52575;DHT22;38468;48.114;-1.684;2023-11-22T00:32:54;12.90;77.20
52575;DHT22;38468;48.114;-1.684;2023-11-22T00:34:54;12.90;77.20
52575;DHT22;38468;48.114;-1.684;2023-11-22T00:36:55;12.80;77.30
52575;DHT22;38468;48.114;-1.684;2023-11-22T00:38:55;12.90;77.40
52575;DHT22;38468;48.114;-1.684;2023-11-22T00:40:56;12.80;77.50
52575;DHT22;38468;48.114;-1.684;2023-11-22T00:42:57;12.70;77.50
52575;DHT22;38468;48.114;-1.684;2023-11-22T00:44:58;12.70;77.60
52575;DHT22;38468;48.114;-1.684;2023-11-22T00:46:59;12.80;77.70
52575;DHT22;38468;48.114;-1.684;2023-11-22T00:48:59;12.80;77.70
52575;DHT22;38468;48.114;-1.684;2023-11-22T00:51:00;12.70;77.70
52575;DHT22;38468;48.114;-1.684;2023-11-22T00:53:01;12.80;77.70
52575;DHT22;38468;48.114;-1.684;2023-11-22T00:55:01;12.80;77.70
52575;DHT22;38468;48.114;-1.684;2023-11-22T00:57:02;12.80;77.60
52575;DHT22;38468;48.114;-1.684;2023-11-22T00:59:02;12.80;77.60
52575;DHT22;38468;48.114;-1.684;2023-11-22T01:01:04;12.80;77.60
52575;DHT22;38468;48.114;-1.684;2023-11-22T01:03:05;12.80;77.50
52575;DHT22;38468;48.114;-1.684;2023-11-22T01:05:07;12.80;77.60
52575;DHT22;38468;48.114;-1.684;2023-11-22T01:07:16;12.80;77.60
52575;DHT22;38468;48.114;-1.684;2023-11-22T01:09:16;12.80;77.70
52575;DHT22;38468;48.114;-1.684;2023-11-22T01:11:17;12.80;77.70
52575;DHT22;38468;48.114;-1.684;2023-11-22T01:13:17;12.80;77.70
52575;DHT22;38468;48.114;-1.684;2023-11-22T01:15:18;12.80;77.70
52575;DHT22;38468;48.114;-1.684;2023-11-22T01:17:19;12.80;77.70
52575;DHT22;38468;48.114;-1.684;2023-11-22T01:19:19;12.80;77.70
52575;DHT22;38468;48.114;-1.684;2023-11-22T01:21:20;12.70;77.70
52575;DHT22;38468;48.114;-1.684;2023-11-22T01:23:21;12.70;77.70
52575;DHT22;38468;48.114;-1.684;2023-11-22T01:25:21;12.60;77.70
52575;DHT22;38468;48.114;-1.684;2023-11-22T01:27:22;12.60;77.80
52575;DHT22;38468;48.114;-1.684;2023-11-22T01:29:24;12.60;77.80
52575;DHT22;38468;48.114;-1.684;2023-11-22T01:31:24;12.60;77.80
52575;DHT22;38468;48.114;-1.684;2023-11-22T01:33:27;12.60;77.90
52575;DHT22;38468;48.114;-1.684;2023-11-22T01:35:28;12.50;77.80
52575;DHT22;38468;48.114;-1.684;2023-11-22T01:37:28;12.60;77.80
52575;DHT22;38468;48.114;-1.684;2023-11-22T01:39:29;12.50;77.90
52575;DHT22;38468;48.114;-1.684;2023-11-22T01:41:30;12.50;77.90
52575;DHT22;38468;48.114;-1.684;2023-11-22T01:43:31;12.50;77.90
52575;DHT22;38468;48.114;-1.684;2023-11-22T01:45:32;12.50;78.00
52575;DHT22;38468;48.114;-1.684;2023-11-22T01:47:32;12.50;78.00
52575;DHT22;38468;48.114;-1.684;2023-11-22T01:49:33;12.40;78.10
52575;DHT22;38468;48.114;-1.684;2023-11-22T01:51:34;12.40;78.10
52575;DHT22;38468;48.114;-1.684;2023-11-22T01:53:35;12.40;78.10
52575;DHT22;38468;48.114;-1.684;2023-11-22T01:55:36;12.40;78.10
52575;DHT22;38468;48.114;-1.684;2023-11-22T01:57:37;12.40;78.10
52575;DHT22;38468;48.114;-1.684;2023-11-22T01:59:39;12.40;78.20
52575;DHT22;38468;48.114;-1.684;2023-11-22T02:01:40;12.40;78.10
52575;DHT22;38468;48.114;-1.684;2023-11-22T02:03:42;12.40;78.10
52575;DHT22;38468;48.114;-1.684;2023-11-22T02:05:42;12.40;78.10
52575;DHT22;38468;48.114;-1.684;2023-11-22T02:07:43;12.40;78.10
52575;DHT22;38468;48.114;-1.684;2023-11-22T02:09:44;12.40;78.20
52575;DHT22;38468;48.114;-1.684;2023-11-22T02:11:46;12.40;78.20
52575;DHT22;38468;48.114;-1.684;2023-11-22T02:13:49;12.40;78.10
52575;DHT22;38468;48.114;-1.684;2023-11-22T02:15:50;12.40;78.10
52575;DHT22;38468;48.114;-1.684;2023-11-22T02:17:51;12.40;78.10
52575;DHT22;38468;48.114;-1.684;2023-11-22T02:19:52;12.40;78.10
52575;DHT22;38468;48.114;-1.684;2023-11-22T02:21:53;12.40;78.20
52575;DHT22;38468;48.114;-1.684;2023-11-22T02:23:53;12.40;78.20
52575;DHT22;38468;48.114;-1.684;2023-11-22T02:25:54;12.40;78.20
52575;DHT22;38468;48.114;-1.684;2023-11-22T02:27:55;12.40;78.20
52575;DHT22;38468;48.114;-1.684;2023-11-22T02:29:55;12.40;78.20
52575;DHT22;38468;48.114;-1.684;2023-11-22T02:31:56;12.40;78.20
52575;DHT22;38468;48.114;-1.684;2023-11-22T02:33:56;12.40;78.20
52575;DHT22;38468;48.114;-1.684;2023-11-22T02:35:57;12.30;78.20
52575;DHT22;38468;48.114;-1.684;2023-11-22T02:37:59;12.30;78.10
52575;DHT22;38468;48.114;-1.684;2023-11-22T02:40:18;12.30;78.20
52575;DHT22;38468;48.114;-1.684;2023-11-22T02:42:22;12.30;78.10
52575;DHT22;38468;48.114;-1.684;2023-11-22T02:44:22;12.30;78.10
52575;DHT22;38468;48.114;-1.684;2023-11-22T02:46:23;12.30;78.10
52575;DHT22;38468;48.114;-1.684;2023-11-22T02:48:24;12.30;78.10
52575;DHT22;38468;48.114;-1.684;2023-11-22T02:50:24;12.30;78.10
52575;DHT22;38468;48.114;-1.684;2023-11-22T02:52:25;12.20;78.10
52575;DHT22;38468;48.114;-1.684;2023-11-22T02:54:26;12.20;78.10
52575;DHT22;38468;48.114;-1.684;2023-11-22T02:56:27;12.20;78.20
52575;DHT22;38468;48.114;-1.684;2023-11-22T02:58:29;12.20;78.20
52575;DHT22;38468;48.114;-1.684;2023-11-22T03:00:30;12.20;78.20
52575;DHT22;38468;48.114;-1.684;2023-11-22T03:02:30;12.20;78.20
52575;DHT22;38468;48.114;-1.684;2023-11-22T03:04:35;12.30;78.10
52575;DHT22;38468;48.114;-1.684;2023-11-22T03:06:41;12.20;78.10
52575;DHT22;38468;48.114;-1.684;2023-11-22T03:08:41;12.20;78.10
52575;DHT22;38468;48.114;-1.684;2023-11-22T03:10:43;12.20;78.10
52575;DHT22;38468;48.114;-1.684;2023-11-22T03:12:44;12.20;78.10
52575;DHT22;38468;48.114;-1.684;2023-11-22T03:14:44;12.20;78.10
52575;DHT22;38468;48.114;-1.684;2023-11-22T03:16:45;12.20;78.10
52575;DHT22;38468;48.114;-1.684;2023-11-22T03:18:46;12.20;78.10
52575;DHT22;38468;48.114;-1.684;2023-11-22T03:20:46;12.20;78.10
52575;DHT22;38468;48.114;-1.684;2023-11-22T03:22:47;12.10;78.10
52575;DHT22;38468;48.114;-1.684;2023-11-22T03:24:50;12.20;78.10
52575;DHT22;38468;48.114;-1.684;2023-11-22T03:26:51;12.20;78.20
52575;DHT22;38468;48.114;-1.684;2023-11-22T03:28:53;12.20;78.20
52575;DHT22;38468;48.114;-1.684;2023-11-22T03:30:53;12.20;78.10
52575;DHT22;38468;48.114;-1.684;2023-11-22T03:32:54;12.20;78.10
52575;DHT22;38468;48.114;-1.684;2023-11-22T03:34:55;12.20;78.10
52575;DHT22;38468;48.114;-1.684;2023-11-22T03:36:57;12.20;78.10
52575;DHT22;38468;48.114;-1.684;2023-11-22T03:38:58;12.20;78.10
52575;DHT22;38468;48.114;-1.684;2023-11-22T03:40:59;12.10;78.00
52575;DHT22;38468;48.114;-1.684;2023-11-22T03:42:59;12.10;78.00
52575;DHT22;38468;48.114;-1.684;2023-11-22T03:45:00;12.10;78.00
52575;DHT22;38468;48.114;-1.684;2023-11-22T03:47:01;12.10;78.10
52575;DHT22;38468;48.114;-1.684;2023-11-22T03:49:03;12.20;78.10
52575;DHT22;38468;48.114;-1.684;2023-11-22T03:51:03;12.20;78.10
52575;DHT22;38468;48.114;-1.684;2023-11-22T03:53:04;12.20;78.00
52575;DHT22;38468;48.114;-1.684;2023-11-22T03:55:05;12.20;78.00
52575;DHT22;38468;48.114;-1.684;2023-11-22T03:57:06;12.10;78.00
52575;DHT22;38468;48.114;-1.684;2023-11-22T03:59:15;12.10;77.90
52575;DHT22;38468;48.114;-1.684;2023-11-22T04:01:19;12.10;77.90
52575;DHT22;38468;48.114;-1.684;2023-11-22T04:03:20;12.10;78.00
52575;DHT22;38468;48.114;-1.684;2023-11-22T04:05:21;12.10;78.00
52575;DHT22;38468;48.114;-1.684;2023-11-22T04:07:22;12.10;78.00
52575;DHT22;38468;48.114;-1.684;2023-11-22T04:09:22;12.10;78.00
52575;DHT22;38468;48.114;-1.684;2023-11-22T04:11:23;12.20;78.00
52575;DHT22;38468;48.114;-1.684;2023-11-22T04:13:23;12.10;77.90
52575;DHT22;38468;48.114;-1.684;2023-11-22T04:15:25;12.20;77.90
52575;DHT22;38468;48.114;-1.684;2023-11-22T04:17:26;12.10;77.90
52575;DHT22;38468;48.114;-1.684;2023-11-22T04:19:27;12.20;77.90
52575;DHT22;38468;48.114;-1.684;2023-11-22T04:21:27;12.20;77.90
52575;DHT22;38468;48.114;-1.684;2023-11-22T04:23:28;12.20;77.90
52575;DHT22;38468;48.114;-1.684;2023-11-22T04:25:28;12.20;77.90
52575;DHT22;38468;48.114;-1.684;2023-11-22T04:27:29;12.20;77.80
52575;DHT22;38468;48.114;-1.684;2023-11-22T04:29:30;12.20;77.80
52575;DHT22;38468;48.114;-1.684;2023-11-22T04:31:30;12.10;77.70
52575;DHT22;38468;48.114;-1.684;2023-11-22T04:33:31;12.10;77.70
52575;DHT22;38468;48.114;-1.684;2023-11-22T04:35:32;12.10;77.80
52575;DHT22;38468;48.114;-1.684;2023-11-22T04:37:36;12.00;77.70
52575;DHT22;38468;48.114;-1.684;2023-11-22T04:39:37;12.00;77.70
52575;DHT22;38468;48.114;-1.684;2023-11-22T04:41:38;12.00;77.80
52575;DHT22;38468;48.114;-1.684;2023-11-22T04:43:38;12.00;77.70
52575;DHT22;38468;48.114;-1.684;2023-11-22T04:45:39;12.00;77.70
52575;DHT22;38468;48.114;-1.684;2023-11-22T04:47:40;12.00;77.70
52575;DHT22;38468;48.114;-1.684;2023-11-22T04:49:40;12.00;77.60
52575;DHT22;38468;48.114;-1.684;2023-11-22T04:51:41;12.00;77.60
52575;DHT22;38468;48.114;-1.684;2023-11-22T04:53:44;11.90;77.60
52575;DHT22;38468;48.114;-1.684;2023-11-22T04:55:44;12.00;77.60
52575;DHT22;38468;48.114;-1.684;2023-11-22T04:57:46;12.00;77.50
52575;DHT22;38468;48.114;-1.684;2023-11-22T04:59:47;11.90;77.60
52575;DHT22;38468;48.114;-1.684;2023-11-22T05:01:48;12.00;77.60
52575;DHT22;38468;48.114;-1.684;2023-11-22T05:03:49;11.90;77.50
52575;DHT22;38468;48.114;-1.684;2023-11-22T05:05:49;11.90;77.50
52575;DHT22;38468;48.114;-1.684;2023-11-22T05:07:50;11.90;77.50
52575;DHT22;38468;48.114;-1.684;2023-11-22T05:09:51;12.00;77.50
52575;DHT22;38468;48.114;-1.684;2023-11-22T05:11:51;12.00;77.40
52575;DHT22;38468;48.114;-1.684;2023-11-22T05:13:55;11.90;77.40
52575;DHT22;38468;48.114;-1.684;2023-11-22T05:15:56;11.90;77.40
52575;DHT22;38468;48.114;-1.684;2023-11-22T05:17:56;11.90;77.50
52575;DHT22;38468;48.114;-1.684;2023-11-22T05:19:57;12.00;77.50
52575;DHT22;38468;48.114;-1.684;2023-11-22T05:21:58;12.00;77.40
52575;DHT22;38468;48.114;-1.684;2023-11-22T05:23:59;12.00;77.40
52575;DHT22;38468;48.114;-1.684;2023-11-22T05:25:59;12.00;77.40
52575;DHT22;38468;48.114;-1.684;2023-11-22T05:28:01;12.00;77.30
52575;DHT22;38468;48.114;-1.684;2023-11-22T05:30:02;12.00;77.30
52575;DHT22;38468;48.114;-1.684;2023-11-22T05:32:03;12.00;77.40
52575;DHT22;38468;48.114;-1.684;2023-11-22T05:34:03;12.00;77.30
52575;DHT22;38468;48.114;-1.684;2023-11-22T05:36:04;12.00;77.30
52575;DHT22;38468;48.114;-1.684;2023-11-22T05:38:05;12.00;77.20
52575;DHT22;38468;48.114;-1.684;2023-11-22T05:40:06;12.00;77.20
52575;DHT22;38468;48.114;-1.684;2023-11-22T05:42:10;12.00;77.10
52575;DHT22;38468;48.114;-1.684;2023-11-22T05:44:11;11.90;77.10
52575;DHT22;38468;48.114;-1.684;2023-11-22T05:46:11;11.90;77.10
52575;DHT22;38468;48.114;-1.684;2023-11-22T05:48:13;11.90;77.10
52575;DHT22;38468;48.114;-1.684;2023-11-22T05:50:13;11.90;77.00
52575;DHT22;38468;48.114;-1.684;2023-11-22T05:52:14;11.90;77.00
52575;DHT22;38468;48.114;-1.684;2023-11-22T05:54:15;11.90;77.00
52575;DHT22;38468;48.114;-1.684;2023-11-22T05:56:16;11.90;77.00
52575;DHT22;38468;48.114;-1.684;2023-11-22T05:58:17;11.90;77.10
52575;DHT22;38468;48.114;-1.684;2023-11-22T06:00:18;11.90;77.00
52575;DHT22;38468;48.114;-1.684;2023-11-22T06:02:22;11.90;76.90
52575;DHT22;38468;48.114;-1.684;2023-11-22T06:04:22;11.90;77.00
52575;DHT22;38468;48.114;-1.684;2023-11-22T06:06:23;11.90;76.90
52575;DHT22;38468;48.114;-1.684;2023-11-22T06:08:24;11.80;76.90
52575;DHT22;38468;48.114;-1.684;2023-11-22T06:10:25;11.80;76.90
52575;DHT22;38468;48.114;-1.684;2023-11-22T06:12:25;11.80;76.90
52575;DHT22;38468;48.114;-1.684;2023-11-22T06:14:26;11.90;76.90
52575;DHT22;38468;48.114;-1.684;2023-11-22T06:16:26;11.80;76.80
52575;DHT22;38468;48.114;-1.684;2023-11-22T06:18:27;11.90;76.80
52575;DHT22;38468;48.114;-1.684;2023-11-22T06:20:30;11.80;76.80
52575;DHT22;38468;48.114;-1.684;2023-11-22T06:22:31;11.80;76.70
52575;DHT22;38468;48.114;-1.684;2023-11-22T06:24:32;11.80;76.70
52575;DHT22;38468;48.114;-1.684;2023-11-22T06:26:34;11.80;76.70
52575;DHT22;38468;48.114;-1.684;2023-11-22T06:28:35;11.80;76.60
52575;DHT22;38468;48.114;-1.684;2023-11-22T06:30:35;11.70;76.40
52575;DHT22;38468;48.114;-1.684;2023-11-22T06:32:36;11.70;76.50
52575;DHT22;38468;48.114;-1.684;2023-11-22T06:34:36;11.70;76.50
52575;DHT22;38468;48.114;-1.684;2023-11-22T06:36:37;11.70;76.50
52575;DHT22;38468;48.114;-1.684;2023-11-22T06:38:38;11.70;76.40
52575;DHT22;38468;48.114;-1.684;2023-11-22T06:40:39;11.60;76.40
52575;DHT22;38468;48.114;-1.684;2023-11-22T06:42:40;11.60;76.40
52575;DHT22;38468;48.114;-1.684;2023-11-22T06:44:41;11.60;76.30
52575;DHT22;38468;48.114;-1.684;2023-11-22T06:46:42;11.60;76.30
52575;DHT22;38468;48.114;-1.684;2023-11-22T06:48:43;11.60;76.30
52575;DHT22;38468;48.114;-1.684;2023-11-22T06:50:48;11.50;76.30
52575;DHT22;38468;48.114;-1.684;2023-11-22T06:52:48;11.50;76.30
52575;DHT22;38468;48.114;-1.684;2023-11-22T06:54:50;11.60;76.30
52575;DHT22;38468;48.114;-1.684;2023-11-22T06:56:51;11.50;76.30
52575;DHT22;38468;48.114;-1.684;2023-11-22T06:58:52;11.50;76.20
52575;DHT22;38468;48.114;-1.684;2023-11-22T07:00:52;11.50;76.20
52575;DHT22;38468;48.114;-1.684;2023-11-22T07:02:53;11.50;76.20
52575;DHT22;38468;48.114;-1.684;2023-11-22T07:04:54;11.50;76.10
52575;DHT22;38468;48.114;-1.684;2023-11-22T07:06:54;11.50;76.10
52575;DHT22;38468;48.114;-1.684;2023-11-22T07:08:55;11.40;76.10
52575;DHT22;38468;48.114;-1.684;2023-11-22T07:10:55;11.40;76.10
52575;DHT22;38468;48.114;-1.684;2023-11-22T07:12:57;11.40;76.10
52575;DHT22;38468;48.114;-1.684;2023-11-22T07:14:57;11.40;76.10
52575;DHT22;38468;48.114;-1.684;2023-11-22T07:16:59;11.40;76.20
52575;DHT22;38468;48.114;-1.684;2023-11-22T07:19:00;11.40;76.20
52575;DHT22;38468;48.114;-1.684;2023-11-22T07:21:04;11.40;76.20
52575;DHT22;38468;48.114;-1.684;2023-11-22T07:23:06;11.40;76.20
52575;DHT22;38468;48.114;-1.684;2023-11-22T07:25:07;11.40;76.20
52575;DHT22;38468;48.114;-1.684;2023-11-22T07:27:08;11.50;76.20
52575;DHT22;38468;48.114;-1.684;2023-11-22T07:29:12;11.50;76.20
52575;DHT22;38468;48.114;-1.684;2023-11-22T07:31:13;11.50;76.10
52575;DHT22;38468;48.114;-1.684;2023-11-22T07:33:14;11.50;76.10
52575;DHT22;38468;48.114;-1.684;2023-11-22T07:35:20;11.50;76.20
52575;DHT22;38468;48.114;-1.684;2023-11-22T07:37:21;11.50;76.20
52575;DHT22;38468;48.114;-1.684;2023-11-22T07:39:22;11.50;76.20
52575;DHT22;38468;48.114;-1.684;2023-11-22T07:41:27;11.40;76.30
52575;DHT22;38468;48.114;-1.684;2023-11-22T07:43:28;11.50;76.30
52575;DHT22;38468;48.114;-1.684;2023-11-22T07:45:28;11.50;76.30
52575;DHT22;38468;48.114;-1.684;2023-11-22T07:47:29;11.50;76.30
52575;DHT22;38468;48.114;-1.684;2023-11-22T07:49:30;11.50;76.30
52575;DHT22;38468;48.114;-1.684;2023-11-22T07:51:30;11.50;76.30
52575;DHT22;38468;48.114;-1.684;2023-11-22T07:53:31;11.50;76.20
52575;DHT22;38468;48.114;-1.684;2023-11-22T07:55:34;11.50;76.20
52575;DHT22;38468;48.114;-1.684;2023-11-22T07:57:38;11.50;76.20
52575;DHT22;38468;48.114;-1.684;2023-11-22T07:59:41;11.60;76.20
52575;DHT22;38468;48.114;-1.684;2023-11-22T08:01:43;11.60;76.20
52575;DHT22;38468;48.114;-1.684;2023-11-22T08:03:49;11.60;76.20
52575;DHT22;38468;48.114;-1.684;2023-11-22T08:05:52;11.60;76.20
52575;DHT22;38468;48.114;-1.684;2023-11-22T08:07:57;11.60;76.20
52575;DHT22;38468;48.114;-1.684;2023-11-22T08:09:58;11.70;76.20
52575;DHT22;38468;48.114;-1.684;2023-11-22T08:11:59;11.70;76.20
52575;DHT22;38468;48.114;-1.684;2023-11-22T08:14:04;11.70;76.30
52575;DHT22;38468;48.114;-1.684;2023-11-22T08:16:06;11.70;76.40
52575;DHT22;38468;48.114;-1.684;2023-11-22T08:18:06;11.70;76.30
52575;DHT22;38468;48.114;-1.684;2023-11-22T08:20:07;11.70;76.30
52575;DHT22;38468;48.114;-1.684;2023-11-22T08:22:13;11.70;76.40
52575;DHT22;38468;48.114;-1.684;2023-11-22T08:24:14;11.70;76.40
52575;DHT22;38468;48.114;-1.684;2023-11-22T08:26:15;11.70;76.50
52575;DHT22;38468;48.114;-1.684;2023-11-22T08:28:16;11.80;76.50
52575;DHT22;38468;48.114;-1.684;2023-11-22T08:30:16;11.90;76.50
52575;DHT22;38468;48.114;-1.684;2023-11-22T08:32:18;11.90;76.60
52575;DHT22;38468;48.114;-1.684;2023-11-22T08:34:22;12.10;77.40
52575;DHT22;38468;48.114;-1.684;2023-11-22T08:36:23;12.40;77.90
52575;DHT22;38468;48.114;-1.684;2023-11-22T08:38:24;12.80;78.10
52575;DHT22;38468;48.114;-1.684;2023-11-22T08:40:26;13.00;77.50
52575;DHT22;38468;48.114;-1.684;2023-11-22T08:42:27;13.00;76.90
52575;DHT22;38468;48.114;-1.684;2023-11-22T08:44:27;13.10;76.50
52575;DHT22;38468;48.114;-1.684;2023-11-22T08:46:28;13.10;76.20
52575;DHT22;38468;48.114;-1.684;2023-11-22T08:48:29;13.20;76.40
52575;DHT22;38468;48.114;-1.684;2023-11-22T08:50:30;13.50;77.20
52575;DHT22;38468;48.114;-1.684;2023-11-22T08:52:30;13.90;76.90
52575;DHT22;38468;48.114;-1.684;2023-11-22T08:54:31;13.90;75.70
52575;DHT22;38468;48.114;-1.684;2023-11-22T08:56:31;13.90;75.10
52575;DHT22;38468;48.114;-1.684;2023-11-22T08:58:32;13.70;74.50
52575;DHT22;38468;48.114;-1.684;2023-11-22T09:00:33;13.60;74.30
52575;DHT22;38468;48.114;-1.684;2023-11-22T09:02:36;13.50;74.40
52575;DHT22;38468;48.114;-1.684;2023-11-22T09:04:37;13.70;75.20
52575;DHT22;38468;48.114;-1.684;2023-11-22T09:06:38;13.80;74.90
52575;DHT22;38468;48.114;-1.684;2023-11-22T09:08:39;13.80;74.60
52575;DHT22;38468;48.114;-1.684;2023-11-22T09:10:39;14.00;75.90
52575;DHT22;38468;48.114;-1.684;2023-11-22T09:12:42;14.50;76.60
52575;DHT22;38468;48.114;-1.684;2023-11-22T09:14:44;15.10;76.10
52575;DHT22;38468;48.114;-1.684;2023-11-22T09:16:44;15.00;73.40
52575;DHT22;38468;48.114;-1.684;2023-11-22T09:18:51;14.90;72.80
52575;DHT22;38468;48.114;-1.684;2023-11-22T09:20:52;15.00;73.50
52575;DHT22;38468;48.114;-1.684;2023-11-22T09:22:53;15.20;74.00
52575;DHT22;38468;48.114;-1.684;2023-11-22T09:24:54;15.90;75.60
52575;DHT22;38468;48.114;-1.684;2023-11-22T09:26:55;16.60;75.70
52575;DHT22;38468;48.114;-1.684;2023-11-22T09:28:56;17.30;74.50
52575;DHT22;38468;48.114;-1.684;2023-11-22T09:30:56;17.70;72.40
52575;DHT22;38468;48.114;-1.684;2023-11-22T09:35:08;17.00;67.60
52575;DHT22;38468;48.114;-1.684;2023-11-22T09:37:09;16.50;67.40
52575;DHT22;38468;48.114;-1.684;2023-11-22T09:39:10;16.00;67.30
52575;DHT22;38468;48.114;-1.684;2023-11-22T09:41:11;15.60;67.60
52575;DHT22;38468;48.114;-1.684;2023-11-22T09:43:13;15.30;67.80
52575;DHT22;38468;48.114;-1.684;2023-11-22T09:45:20;15.10;68.10
52575;DHT22;38468;48.114;-1.684;2023-11-22T09:47:21;14.90;68.30
52575;DHT22;38468;48.114;-1.684;2023-11-22T09:49:25;14.80;68.60
52575;DHT22;38468;48.114;-1.684;2023-11-22T09:51:33;14.70;68.70
52575;DHT22;38468;48.114;-1.684;2023-11-22T09:53:51;14.90;70.20
52575;DHT22;38468;48.114;-1.684;2023-11-22T09:55:53;15.50;71.70
52575;DHT22;38468;48.114;-1.684;2023-11-22T09:57:56;16.10;71.30
52575;DHT22;38468;48.114;-1.684;2023-11-22T09:59:59;16.50;70.80
52575;DHT22;38468;48.114;-1.684;2023-11-22T10:02:01;16.70;69.60
52575;DHT22;38468;48.114;-1.684;2023-11-22T10:04:03;16.90;69.30
52575;DHT22;38468;48.114;-1.684;2023-11-22T10:06:07;17.10;68.70
52575;DHT22;38468;48.114;-1.684;2023-11-22T10:08:08;17.00;67.60
52575;DHT22;38468;48.114;-1.684;2023-11-22T10:10:12;16.70;66.40
52575;DHT22;38468;48.114;-1.684;2023-11-22T10:12:19;16.30;65.90
52575;DHT22;38468;48.114;-1.684;2023-11-22T10:14:24;15.90;65.70
52575;DHT22;38468;48.114;-1.684;2023-11-22T10:16:27;15.60;65.70
52575;DHT22;38468;48.114;-1.684;2023-11-22T10:18:28;15.40;65.80
52575;DHT22;38468;48.114;-1.684;2023-11-22T10:20:37;15.10;65.90
52575;DHT22;38468;48.114;-1.684;2023-11-22T10:22:45;15.00;66.10
52575;DHT22;38468;48.114;-1.684;2023-11-22T10:24:48;14.90;66.30
52575;DHT22;38468;48.114;-1.684;2023-11-22T10:26:51;14.80;66.50
52575;DHT22;38468;48.114;-1.684;2023-11-22T10:28:53;14.80;66.50
52575;DHT22;38468;48.114;-1.684;2023-11-22T10:30:54;14.70;66.50
52575;DHT22;38468;48.114;-1.684;2023-11-22T10:32:55;14.60;66.50
52575;DHT22;38468;48.114;-1.684;2023-11-22T10:34:56;14.60;66.70
52575;DHT22;38468;48.114;-1.684;2023-11-22T10:36:58;14.60;67.40
52575;DHT22;38468;48.114;-1.684;2023-11-22T10:38:59;14.80;67.80
52575;DHT22;38468;48.114;-1.684;2023-11-22T10:41:00;15.00;68.20
52575;DHT22;38468;48.114;-1.684;2023-11-22T10:43:03;15.20;68.20
52575;DHT22;38468;48.114;-1.684;2023-11-22T10:45:06;15.40;68.00
52575;DHT22;38468;48.114;-1.684;2023-11-22T10:47:08;15.50;68.00
52575;DHT22;38468;48.114;-1.684;2023-11-22T10:49:09;15.70;68.00
52575;DHT22;38468;48.114;-1.684;2023-11-22T10:51:13;15.90;68.00
52575;DHT22;38468;48.114;-1.684;2023-11-22T10:53:21;16.00;67.50
52575;DHT22;38468;48.114;-1.684;2023-11-22T10:55:32;16.10;67.10
52575;DHT22;38468;48.114;-1.684;2023-11-22T10:57:41;16.10;66.80
52575;DHT22;38468;48.114;-1.684;2023-11-22T10:59:45;16.00;66.60
52575;DHT22;38468;48.114;-1.684;2023-11-22T11:01:49;15.90;65.60
52575;DHT22;38468;48.114;-1.684;2023-11-22T11:03:56;15.80;65.60
52575;DHT22;38468;48.114;-1.684;2023-11-22T11:06:02;15.70;65.50
52575;DHT22;38468;48.114;-1.684;2023-11-22T11:08:11;15.60;65.50
52575;DHT22;38468;48.114;-1.684;2023-11-22T11:10:13;15.50;65.70
52575;DHT22;38468;48.114;-1.684;2023-11-22T11:12:14;15.50;65.90
52575;DHT22;38468;48.114;-1.684;2023-11-22T11:14:15;15.40;66.00
52575;DHT22;38468;48.114;-1.684;2023-11-22T11:16:18;15.50;66.50
52575;DHT22;38468;48.114;-1.684;2023-11-22T11:18:20;15.60;66.60
52575;DHT22;38468;48.114;-1.684;2023-11-22T11:20:22;15.60;66.50
52575;DHT22;38468;48.114;-1.684;2023-11-22T11:22:24;15.80;66.70
52575;DHT22;38468;48.114;-1.684;2023-11-22T11:24:25;15.80;66.20
52575;DHT22;38468;48.114;-1.684;2023-11-22T11:26:25;15.70;65.40
52575;DHT22;38468;48.114;-1.684;2023-11-22T11:28:26;15.50;65.40
52575;DHT22;38468;48.114;-1.684;2023-11-22T11:30:45;15.40;65.10
52575;DHT22;38468;48.114;-1.684;2023-11-22T11:32:46;15.30;65.00
52575;DHT22;38468;48.114;-1.684;2023-11-22T11:34:48;15.30;65.10
52575;DHT22;38468;48.114;-1.684;2023-11-22T11:36:54;15.20;65.10
52575;DHT22;38468;48.114;-1.684;2023-11-22T11:38:56;15.20;65.40
52575;DHT22;38468;48.114;-1.684;2023-11-22T11:41:08;15.30;65.60
52575;DHT22;38468;48.114;-1.684;2023-11-22T11:43:10;15.20;65.00
52575;DHT22;38468;48.114;-1.684;2023-11-22T11:45:11;15.20;64.80
52575;DHT22;38468;48.114;-1.684;2023-11-22T11:47:13;15.20;65.80
52575;DHT22;38468;48.114;-1.684;2023-11-22T11:49:14;15.70;67.70
52575;DHT22;38468;48.114;-1.684;2023-11-22T11:51:15;16.30;68.80
52575;DHT22;38468;48.114;-1.684;2023-11-22T11:53:21;17.00;69.40
52575;DHT22;38468;48.114;-1.684;2023-11-22T11:55:22;17.60;68.80
52575;DHT22;38468;48.114;-1.684;2023-11-22T11:57:23;17.90;68.20
52575;DHT22;38468;48.114;-1.684;2023-11-22T11:59:23;18.00;65.80
52575;DHT22;38468;48.114;-1.684;2023-11-22T12:01:24;18.00;65.70
52575;DHT22;38468;48.114;-1.684;2023-11-22T12:03:25;18.00;65.10
52575;DHT22;38468;48.114;-1.684;2023-11-22T12:05:26;17.70;63.80
52575;DHT22;38468;48.114;-1.684;2023-11-22T12:07:28;17.40;63.30
52575;DHT22;38468;48.114;-1.684;2023-11-22T12:09:28;17.00;62.80
52575;DHT22;38468;48.114;-1.684;2023-11-22T12:11:30;16.80;62.60
52575;DHT22;38468;48.114;-1.684;2023-11-22T12:13:31;16.60;62.70
52575;DHT22;38468;48.114;-1.684;2023-11-22T12:15:32;16.40;63.20
52575;DHT22;38468;48.114;-1.684;2023-11-22T12:17:33;16.40;63.40
52575;DHT22;38468;48.114;-1.684;2023-11-22T12:19:34;16.80;65.10
52575;DHT22;38468;48.114;-1.684;2023-11-22T12:21:34;17.20;66.60
52575;DHT22;38468;48.114;-1.684;2023-11-22T12:23:35;17.90;66.20
52575;DHT22;38468;48.114;-1.684;2023-11-22T12:25:36;18.10;64.90
52575;DHT22;38468;48.114;-1.684;2023-11-22T12:27:43;18.40;64.40
52575;DHT22;38468;48.114;-1.684;2023-11-22T12:29:46;18.50;63.30
52575;DHT22;38468;48.114;-1.684;2023-11-22T12:31:50;18.40;63.00
52575;DHT22;38468;48.114;-1.684;2023-11-22T12:33:57;18.20;61.80
52575;DHT22;38468;48.114;-1.684;2023-11-22T12:35:59;17.90;60.50
52575;DHT22;38468;48.114;-1.684;2023-11-22T12:38:04;17.50;60.50